Terminal Aerodrome Forecast
Issued by NWS

Home | Current Version | Previous Version | Text Only | Print | Product List | Glossary On
Versions: 1 2 3 4 5 6 7 8 9 10 11 12 13 14 15 16 17 18 19 20 21 22 23 24 25 26 27
000
FTUS43 KLOT 300304 AAA
TAFORD
TAF AMD
KORD 300304Z 3003/3106 26006KT P6SM VCSH FEW070 BKN100
     FM300350 34012KT P6SM VCSH FEW070 BKN100
     FM300500 26006KT P6SM SCT100
     FM301500 26015G23KT P6SM BKN050 PROB30 3019/3024 6SM -SHRA
     FM310100 26008KT P6SM SCT050=

USA.gov is the U.S. government's official web portal to all federal, state and local government web resources and services.